createdAt,value
2023-04-29T00:00:46.514Z,12.10
2023-04-29T00:03:21.064Z,13.00
2023-04-29T00:05:51.156Z,11.60
2023-04-29T00:08:21.109Z,15.60
2023-04-29T00:10:50.927Z,15.20
2023-04-29T00:13:20.913Z,9.90
2023-04-29T00:15:50.478Z,11.80
2023-04-29T00:18:20.171Z,15.50
2023-04-29T00:20:50.039Z,12.40
2023-04-29T00:23:19.806Z,16.30
2023-04-29T00:25:49.983Z,11.60
2023-04-29T00:28:19.568Z,12.60
2023-04-29T00:30:49.217Z,12.10
2023-04-29T00:33:19.029Z,13.70
2023-04-29T00:35:48.637Z,13.60
2023-04-29T00:38:20.649Z,13.50
2023-04-29T00:40:50.504Z,14.80
2023-04-29T00:43:20.228Z,12.40
2023-04-29T00:45:50.604Z,11.70
2023-04-29T00:48:21.162Z,14.90
2023-04-29T00:50:50.836Z,17.90
2023-04-29T00:53:22.595Z,16.10
2023-04-29T00:55:52.906Z,13.00
2023-04-29T00:58:23.564Z,16.60
2023-04-29T01:00:56.440Z,14.80
2023-04-29T01:03:28.707Z,18.10
2023-04-29T01:06:13.308Z,16.40
2023-04-29T01:09:06.340Z,12.60
2023-04-29T01:11:46.841Z,15.10
2023-04-29T01:16:51.267Z,17.80
2023-04-29T01:19:40.171Z,13.70
2023-04-29T01:22:10.281Z,13.50
2023-04-29T01:24:40.286Z,12.90
2023-04-29T01:27:28.029Z,14.70
2023-04-29T01:30:10.705Z,13.10
2023-04-29T01:33:00.836Z,12.80
2023-04-29T01:35:51.457Z,15.50
2023-04-29T01:38:37.256Z,11.70
2023-04-29T01:41:15.657Z,12.50
2023-04-29T01:43:51.406Z,13.40
2023-04-29T01:46:28.039Z,16.10
2023-04-29T01:48:59.693Z,12.90
2023-04-29T01:51:29.446Z,14.10
2023-04-29T01:53:59.269Z,15.60
2023-04-29T01:56:28.984Z,13.70
2023-04-29T01:59:15.984Z,16.10
2023-04-29T02:01:58.410Z,14.10
2023-04-29T02:04:28.486Z,13.50
2023-04-29T02:06:58.258Z,13.60
2023-04-29T02:09:28.880Z,17.60
2023-04-29T02:12:04.106Z,11.30
2023-04-29T02:14:36.208Z,12.50
2023-04-29T02:17:07.814Z,17.50
2023-04-29T02:19:37.567Z,15.70
2023-04-29T02:22:07.250Z,19.60
2023-04-29T02:24:37.074Z,11.80
2023-04-29T02:27:06.797Z,12.30
2023-04-29T02:29:36.867Z,12.30
2023-04-29T02:32:07.206Z,14.70
2023-04-29T02:34:36.893Z,14.20
2023-04-29T02:37:06.521Z,13.10
2023-04-29T02:39:36.090Z,11.20
2023-04-29T02:42:05.972Z,12.50
2023-04-29T02:44:35.600Z,12.20
2023-04-29T02:47:05.408Z,12.50
2023-04-29T02:49:35.224Z,10.80
2023-04-29T02:52:05.344Z,15.80
2023-04-29T02:54:35.974Z,10.10
2023-04-29T02:57:05.751Z,12.70
2023-04-29T02:59:35.632Z,16.60
2023-04-29T03:02:05.524Z,16.00
2023-04-29T03:04:35.388Z,13.40
2023-04-29T03:07:05.295Z,13.80
2023-04-29T03:09:35.295Z,10.80
2023-04-29T03:12:05.586Z,10.40
2023-04-29T03:14:35.951Z,17.20
2023-04-29T03:17:05.648Z,10.30
2023-04-29T03:19:35.562Z,11.60
2023-04-29T03:22:05.809Z,12.90
2023-04-29T03:24:35.644Z,11.10
2023-04-29T03:27:05.664Z,11.30
2023-04-29T03:29:36.014Z,12.60
2023-04-29T03:32:05.839Z,14.70
2023-04-29T03:34:35.567Z,19.90
2023-04-29T03:37:16.032Z,10.40
2023-04-29T03:39:47.749Z,13.50
2023-04-29T03:42:17.317Z,12.40
2023-04-29T03:44:47.373Z,11.90
2023-04-29T03:47:17.120Z,10.00
2023-04-29T03:49:47.025Z,10.30
2023-04-29T03:52:17.010Z,12.90
2023-04-29T03:54:47.212Z,18.20
2023-04-29T03:57:16.936Z,10.30
2023-04-29T03:59:49.718Z,11.20
2023-04-29T04:02:19.535Z,13.80
2023-04-29T04:04:49.586Z,15.00
2023-04-29T04:07:19.640Z,16.60
2023-04-29T04:10:11.207Z,12.10
2023-04-29T04:12:42.129Z,14.40
2023-04-29T04:15:13.581Z,15.40
2023-04-29T04:17:43.492Z,17.20
2023-04-29T04:20:15.545Z,14.30
2023-04-29T04:22:45.427Z,19.10
2023-04-29T04:25:27.695Z,16.60
2023-04-29T04:28:00.464Z,13.00
2023-04-29T04:30:48.280Z,14.70
2023-04-29T04:33:17.965Z,11.80
2023-04-29T04:35:48.652Z,12.10
2023-04-29T04:38:18.721Z,9.50
2023-04-29T04:40:48.498Z,15.10
2023-04-29T04:43:39.466Z,12.00
2023-04-29T04:46:13.921Z,12.70
2023-04-29T04:48:51.412Z,16.10
2023-04-29T04:51:22.453Z,11.80
2023-04-29T04:53:52.101Z,10.20
2023-04-29T04:56:23.966Z,13.40
2023-04-29T04:58:54.015Z,12.00
2023-04-29T05:01:23.710Z,12.70
2023-04-29T05:03:53.712Z,12.90
2023-04-29T05:06:23.504Z,16.40
2023-04-29T05:08:53.330Z,13.70
2023-04-29T05:11:23.384Z,13.60
2023-04-29T05:14:06.368Z,12.70
2023-04-29T05:16:36.097Z,19.00
2023-04-29T05:19:05.948Z,13.40
2023-04-29T05:21:38.446Z,13.80
2023-04-29T05:24:08.691Z,9.40
2023-04-29T05:26:38.590Z,12.60
2023-04-29T05:31:46.129Z,12.40
2023-04-29T05:34:15.980Z,8.70
2023-04-29T05:36:46.196Z,9.60
2023-04-29T05:41:45.111Z,10.60
2023-04-29T05:44:25.122Z,10.10
2023-04-29T05:46:54.670Z,13.50
2023-04-29T05:49:24.380Z,10.20
2023-04-29T05:51:54.187Z,12.80
2023-04-29T05:54:23.914Z,26.80
2023-04-29T05:56:53.770Z,14.20
2023-04-29T05:59:23.464Z,9.90
2023-04-29T06:01:55.851Z,14.20
2023-04-29T06:04:26.594Z,8.70
2023-04-29T06:07:15.386Z,9.80
2023-04-29T06:10:00.842Z,9.30
2023-04-29T06:12:31.812Z,8.80
2023-04-29T06:15:01.542Z,11.90
2023-04-29T06:17:31.881Z,8.50
2023-04-29T06:20:02.038Z,10.20
2023-04-29T06:22:31.833Z,7.40
2023-04-29T06:27:50.089Z,9.30
2023-04-29T06:30:22.481Z,9.70
2023-04-29T06:32:53.070Z,9.40
2023-04-29T06:35:22.811Z,11.00
2023-04-29T06:37:52.797Z,8.30
2023-04-29T06:40:41.009Z,13.90
2023-04-29T06:43:19.683Z,9.10
2023-04-29T06:46:02.252Z,8.70
2023-04-29T06:48:38.215Z,11.60
2023-04-29T06:51:07.956Z,10.90
2023-04-29T06:53:39.710Z,10.80
2023-04-29T06:56:10.021Z,9.00
2023-04-29T07:03:39.883Z,9.50
2023-04-29T07:06:09.755Z,10.30
2023-04-29T07:08:39.813Z,8.40
2023-04-29T07:11:09.521Z,11.70
2023-04-29T07:13:39.333Z,14.00
2023-04-29T07:16:17.520Z,13.00
2023-04-29T07:18:47.276Z,9.70
2023-04-29T07:21:17.013Z,16.70
2023-04-29T07:23:47.513Z,14.50
2023-04-29T07:28:49.277Z,10.70
2023-04-29T07:31:19.139Z,10.50
2023-04-29T07:33:48.958Z,13.50
2023-04-29T07:36:19.259Z,13.70
2023-04-29T07:38:49.046Z,9.80
2023-04-29T07:41:18.699Z,12.70
2023-04-29T07:43:48.276Z,13.60
2023-04-29T07:46:18.120Z,12.20
2023-04-29T07:48:48.002Z,11.80
2023-04-29T07:51:17.680Z,10.70
2023-04-29T07:53:47.310Z,11.00
2023-04-29T07:56:17.105Z,12.80
2023-04-29T07:58:48.333Z,10.50
2023-04-29T08:01:19.040Z,9.90
2023-04-29T08:03:48.828Z,10.30
2023-04-29T08:06:21.754Z,10.00
2023-04-29T08:08:51.470Z,11.70
2023-04-29T08:13:57.421Z,8.20
2023-04-29T08:16:27.564Z,13.30
2023-04-29T08:18:57.319Z,8.70
2023-04-29T08:21:28.134Z,13.60
2023-04-29T08:23:57.672Z,12.80
2023-04-29T08:26:27.715Z,10.70
2023-04-29T08:28:57.541Z,14.50
2023-04-29T08:31:27.309Z,8.50
2023-04-29T08:33:58.203Z,13.80
2023-04-29T08:36:28.166Z,9.40
2023-04-29T08:38:57.781Z,12.70
2023-04-29T08:41:27.507Z,7.90
2023-04-29T08:43:57.092Z,11.80
2023-04-29T08:46:26.855Z,13.90
2023-04-29T08:48:57.557Z,12.80
2023-04-29T08:51:27.630Z,17.30
2023-04-29T08:53:58.122Z,15.60
2023-04-29T08:58:58.671Z,17.40
2023-04-29T09:04:16.020Z,19.50
2023-04-29T09:06:46.431Z,16.60
2023-04-29T09:09:17.844Z,14.20
2023-04-29T09:11:48.621Z,15.50
2023-04-29T09:14:19.023Z,18.00
2023-04-29T09:16:49.838Z,16.00
2023-04-29T09:19:33.656Z,12.20
2023-04-29T09:22:04.489Z,8.90
2023-04-29T09:24:34.160Z,13.50
2023-04-29T09:27:04.031Z,12.00
2023-04-29T09:29:35.969Z,12.60
2023-04-29T09:32:21.208Z,12.50
2023-04-29T09:34:51.242Z,10.30
2023-04-29T09:37:27.507Z,8.60
2023-04-29T09:39:57.342Z,10.10
2023-04-29T09:42:27.411Z,9.60
2023-04-29T09:44:57.116Z,8.90
2023-04-29T09:47:32.830Z,7.60
2023-04-29T09:50:15.952Z,7.90
2023-04-29T09:52:45.583Z,21.00
2023-04-29T09:55:16.951Z,8.10
2023-04-29T09:57:46.691Z,9.10
2023-04-29T10:00:17.110Z,6.10
2023-04-29T10:02:49.467Z,7.10
2023-04-29T10:05:20.769Z,6.90
2023-04-29T10:07:51.163Z,5.30
2023-04-29T10:10:22.960Z,8.50
2023-04-29T10:12:54.512Z,6.50
2023-04-29T10:15:36.815Z,9.20
2023-04-29T10:18:15.034Z,4.90
2023-04-29T10:20:48.836Z,7.00
2023-04-29T10:23:20.929Z,6.50
2023-04-29T10:25:53.727Z,7.10
2023-04-29T10:28:24.471Z,4.90
2023-04-29T10:30:56.116Z,5.50
2023-04-29T10:33:27.893Z,3.90
2023-04-29T10:35:57.753Z,4.80
2023-04-29T10:38:35.679Z,6.40
2023-04-29T10:41:14.402Z,5.10
2023-04-29T10:43:44.350Z,5.20
2023-04-29T10:46:22.454Z,5.70
2023-04-29T10:48:59.083Z,7.70
2023-04-29T10:51:34.502Z,3.80
2023-04-29T10:54:08.634Z,6.30
2023-04-29T10:56:40.381Z,4.50
2023-04-29T10:59:16.489Z,4.70
2023-04-29T11:01:48.732Z,4.00
2023-04-29T11:04:19.686Z,5.80
2023-04-29T11:06:55.321Z,5.30
2023-04-29T11:09:28.463Z,3.20
2023-04-29T11:12:06.311Z,9.90
2023-04-29T11:14:41.332Z,3.10
2023-04-29T11:17:13.565Z,5.20
2023-04-29T11:19:45.847Z,8.70
2023-04-29T11:22:26.914Z,4.00
2023-04-29T11:25:00.124Z,6.60
2023-04-29T11:27:32.815Z,3.50
2023-04-29T11:30:07.110Z,3.70
2023-04-29T11:32:39.508Z,4.30
2023-04-29T11:35:14.255Z,4.20
2023-04-29T11:37:45.496Z,2.30
2023-04-29T11:40:17.564Z,2.50
2023-04-29T11:42:48.716Z,3.40
2023-04-29T11:45:20.150Z,2.60
2023-04-29T11:47:50.794Z,5.20
2023-04-29T11:50:22.388Z,2.40
2023-04-29T11:52:52.404Z,3.00
2023-04-29T11:55:22.046Z,2.50
2023-04-29T11:57:52.739Z,3.60
2023-04-29T12:00:22.751Z,2.00
2023-04-29T12:02:52.992Z,2.20
2023-04-29T12:05:26.621Z,2.00
2023-04-29T12:07:57.468Z,2.60
2023-04-29T12:10:27.915Z,2.90
2023-04-29T12:12:58.203Z,3.70
2023-04-29T12:15:29.161Z,2.00
2023-04-29T12:18:00.703Z,2.30
2023-04-29T12:20:30.783Z,5.10
2023-04-29T12:23:12.362Z,7.30
2023-04-29T12:25:42.228Z,3.50
2023-04-29T12:28:15.519Z,3.90
2023-04-29T12:30:46.796Z,4.30
2023-04-29T12:33:22.103Z,5.50
2023-04-29T12:35:52.598Z,8.20
2023-04-29T12:38:27.123Z,3.30
2023-04-29T12:40:58.892Z,5.10
2023-04-29T12:43:29.609Z,5.90
2023-04-29T12:46:05.196Z,8.80
2023-04-29T12:48:38.104Z,10.40
2023-04-29T12:51:10.050Z,6.10
2023-04-29T12:53:39.843Z,6.30
2023-04-29T12:56:12.022Z,6.60
2023-04-29T12:58:41.712Z,5.70
2023-04-29T13:01:11.934Z,6.20
2023-04-29T13:03:42.002Z,5.00
2023-04-29T13:08:40.321Z,6.60
2023-04-29T13:11:10.584Z,5.10
2023-04-29T13:13:40.684Z,3.00
2023-04-29T13:16:10.999Z,2.70
2023-04-29T13:18:47.915Z,2.40
2023-04-29T13:21:29.760Z,2.60
2023-04-29T13:23:59.359Z,2.60
2023-04-29T13:26:29.768Z,3.60
2023-04-29T13:28:59.547Z,3.90
2023-04-29T13:33:57.845Z,5.00
2023-04-29T13:36:28.191Z,3.90
2023-04-29T13:38:57.910Z,2.80
2023-04-29T13:41:28.111Z,4.50
2023-04-29T13:43:58.533Z,3.80
2023-04-29T13:46:28.959Z,2.20
2023-04-29T13:52:20.105Z,2.00
2023-04-29T13:57:47.563Z,2.50
2023-04-29T13:59:52.282Z,1.60
2023-04-29T14:02:25.660Z,1.80
2023-04-29T14:04:56.592Z,3.80
2023-04-29T14:07:26.550Z,2.20
2023-04-29T14:09:56.502Z,2.20
2023-04-29T14:12:26.267Z,5.30
2023-04-29T14:14:56.920Z,3.70
2023-04-29T14:17:28.060Z,3.70
2023-04-29T14:19:57.730Z,3.20
2023-04-29T14:22:27.528Z,4.50
2023-04-29T14:24:57.134Z,4.20
2023-04-29T14:27:26.921Z,4.50
2023-04-29T14:29:56.457Z,3.50
2023-04-29T14:32:26.276Z,2.30
2023-04-29T14:34:56.077Z,2.70
2023-04-29T14:37:26.380Z,4.10
2023-04-29T14:42:25.133Z,2.80
2023-04-29T14:47:24.349Z,2.80
2023-04-29T14:49:54.031Z,2.80
2023-04-29T14:52:23.754Z,2.60
2023-04-29T14:54:53.594Z,2.40
2023-04-29T14:57:23.456Z,2.30
2023-04-29T14:59:53.251Z,3.20
2023-04-29T15:02:22.936Z,4.40
2023-04-29T15:04:52.850Z,2.20
2023-04-29T15:07:22.847Z,2.50
2023-04-29T15:09:52.583Z,5.70
2023-04-29T15:12:22.429Z,3.60
2023-04-29T15:14:53.340Z,3.60
2023-04-29T15:17:23.207Z,2.20
2023-04-29T15:19:52.924Z,4.40
2023-04-29T15:22:22.636Z,4.10
2023-04-29T15:24:52.471Z,7.40
2023-04-29T15:27:22.476Z,5.60
2023-04-29T15:29:53.817Z,2.50
2023-04-29T15:32:30.835Z,2.90
2023-04-29T15:35:01.259Z,12.60
2023-04-29T15:40:01.989Z,6.30
2023-04-29T15:42:31.898Z,10.00
2023-04-29T15:45:01.489Z,6.70
2023-04-29T15:47:31.182Z,8.30
2023-04-29T15:50:00.884Z,9.60
2023-04-29T15:52:30.576Z,13.20
2023-04-29T15:55:00.156Z,10.50
2023-04-29T15:57:29.906Z,8.80
2023-04-29T15:59:59.658Z,10.50
2023-04-29T16:02:29.353Z,10.40
2023-04-29T16:04:59.067Z,8.40
2023-04-29T16:07:28.714Z,8.00
2023-04-29T16:09:58.385Z,6.70
2023-04-29T16:12:28.094Z,7.20
2023-04-29T16:14:57.684Z,6.60
2023-04-29T16:17:27.732Z,7.00
2023-04-29T16:19:57.777Z,8.20
2023-04-29T16:22:27.921Z,5.90
2023-04-29T16:24:57.555Z,6.20
2023-04-29T16:27:29.430Z,7.70
2023-04-29T16:29:59.514Z,10.10
2023-04-29T16:32:29.419Z,7.80
2023-04-29T16:35:01.259Z,7.90
2023-04-29T16:37:31.733Z,7.80
2023-04-29T16:40:01.394Z,7.00
2023-04-29T16:42:31.006Z,8.90
2023-04-29T16:45:00.649Z,10.60
2023-04-29T16:47:30.531Z,12.50
2023-04-29T16:50:00.337Z,11.40
2023-04-29T16:52:30.009Z,10.30
2023-04-29T16:55:01.013Z,16.50
2023-04-29T16:57:31.472Z,12.60
2023-04-29T17:02:30.709Z,12.00
2023-04-29T17:05:00.583Z,9.90
2023-04-29T17:07:30.770Z,11.00
2023-04-29T17:10:00.366Z,15.40
2023-04-29T17:12:29.952Z,9.30
2023-04-29T17:14:59.682Z,9.60
2023-04-29T17:17:29.413Z,11.10
2023-04-29T17:19:59.139Z,7.10
2023-04-29T17:22:28.824Z,10.10
2023-04-29T17:24:58.612Z,10.30
2023-04-29T17:27:28.321Z,7.10
2023-04-29T17:29:58.041Z,6.50
2023-04-29T17:32:29.027Z,7.00
2023-04-29T17:34:59.935Z,7.00
2023-04-29T17:37:29.983Z,6.70
2023-04-29T17:39:59.625Z,4.60
2023-04-29T17:42:29.588Z,10.80
2023-04-29T17:44:59.223Z,20.20
2023-04-29T17:47:29.068Z,20.60
2023-04-29T17:50:01.762Z,26.40
2023-04-29T17:52:32.175Z,12.80
2023-04-29T17:55:01.826Z,8.10
2023-04-29T17:57:31.597Z,9.10
2023-04-29T18:00:02.781Z,9.90
2023-04-29T18:02:35.128Z,8.70
2023-04-29T18:05:05.742Z,7.30
